Time;durP1;ratioP1;P1;durP2;ratioP2;P2;SDS_P1;SDS_P2;PMS_P1;PMS_P2;Temp;Humidity;BMP_temperature;BMP_pressure;BME280_temperature;BME280_humidity;BME280_pressure;Samples;Min_cycle;Max_cycle;Signal;HPM_P1;HPM_P2
2023/01/17 00:00:06;;;;;;;21.92;11.30;;;;;;;1.34;100.00;92230.22;5029134;28;20033;-41
2023/01/17 00:02:31;;;;;;;23.92;13.00;;;;;;;1.20;100.00;92209.69;5029535;28;20095;-40
2023/01/17 00:10:27;;;;;;;24.42;14.55;;;;;;;1.24;100.00;92201.22;5029239;28;20487;-40
2023/01/17 00:12:58;;;;;;;24.55;14.48;;;;;;;1.20;100.00;92192.63;5028991;28;20045;-40
2023/01/17 00:15:25;;;;;;;25.67;12.23;;;;;;;1.31;100.00;92170.72;5029273;28;20103;-40
2023/01/17 00:17:51;;;;;;;23.73;14.45;;;;;;;1.24;100.00;92180.22;5028653;28;20107;-40
2023/01/17 00:26:11;;;;;;;24.98;13.32;;;;;;;1.18;100.00;92174.13;5028128;28;20033;-40
2023/01/17 01:35:21;;;;;;;26.30;15.75;;;;;;;1.49;100.00;92183.50;5039700;28;20068;-41
2023/01/17 01:37:47;;;;;;;27.23;14.20;;;;;;;1.54;100.00;92164.34;5027348;28;20056;-40
2023/01/17 01:40:14;;;;;;;23.50;14.15;;;;;;;1.59;100.00;92173.69;5027497;28;20032;-40
2023/01/17 01:42:52;;;;;;;22.02;13.95;;;;;;;1.53;100.00;92152.03;5027661;28;20033;-40
2023/01/17 01:45:24;;;;;;;22.60;13.82;;;;;;;1.47;100.00;92145.94;5026019;28;20025;-40
2023/01/17 01:47:54;;;;;;;21.98;13.40;;;;;;;1.47;100.00;92169.69;5027430;28;20064;-40
2023/01/17 01:50:20;;;;;;;21.20;12.70;;;;;;;1.49;100.00;92167.19;5026359;28;20033;-41
2023/01/17 01:52:47;;;;;;;22.73;12.95;;;;;;;1.52;100.00;92160.69;5027471;28;20068;-40
2023/01/17 01:55:20;;;;;;;19.23;11.90;;;;;;;1.58;100.00;92144.28;5027451;28;20722;-40
2023/01/17 01:57:49;;;;;;;19.83;12.98;;;;;;;1.72;100.00;92151.91;5027275;28;20112;-40
2023/01/17 02:00:23;;;;;;;24.40;13.52;;;;;;;1.67;100.00;92144.59;5027419;28;20036;-40
2023/01/17 02:02:50;;;;;;;14.15;9.02;;;;;;;1.82;100.00;92138.63;5027619;28;20025;-40
2023/01/17 02:05:19;;;;;;;20.17;12.15;;;;;;;1.76;100.00;92116.97;5026263;28;20033;-40
2023/01/17 02:07:51;;;;;;;17.77;11.43;;;;;;;1.76;100.00;92097.19;5025925;28;20025;-40
2023/01/17 02:10:17;;;;;;;17.23;10.65;;;;;;;1.80;100.00;92105.78;5027445;28;20033;-40
2023/01/17 02:12:43;;;;;;;16.45;10.40;;;;;;;1.88;100.00;92122.94;5027705;28;20029;-40
2023/01/17 02:15:09;;;;;;;18.55;11.45;;;;;;;1.82;100.00;92116.88;5027021;28;20104;-40
2023/01/17 02:17:54;;;;;;;20.50;12.48;;;;;;;1.77;100.00;92126.59;5027257;28;20416;-41
2023/01/17 02:20:41;;;;;;;22.85;12.57;;;;;;;1.74;100.00;92121.47;5025979;28;20025;-40
2023/01/17 02:23:18;;;;;;;23.40;13.23;;;;;;;1.81;100.00;92126.28;5027057;28;20060;-40
2023/01/17 02:26:09;;;;;;;25.33;14.43;;;;;;;1.79;100.00;92118.66;5027588;28;20079;-40
2023/01/17 02:28:49;;;;;;;18.50;11.38;;;;;;;1.85;100.00;92110.38;5027045;28;20030;-40
2023/01/17 02:31:43;;;;;;;23.55;12.82;;;;;;;1.86;100.00;92109.84;5049191;28;20025;-40
2023/01/17 02:34:43;;;;;;;21.35;12.35;;;;;;;1.85;100.00;92104.91;5051053;28;20033;-40
2023/01/17 02:37:17;;;;;;;18.02;11.25;;;;;;;1.84;100.00;92108.91;5009929;28;20535;-40
2023/01/17 02:39:50;;;;;;;15.25;10.75;;;;;;;2.10;100.00;92106.16;5029469;28;20032;-40
2023/01/17 02:42:17;;;;;;;15.35;9.07;;;;;;;1.90;100.00;92117.69;5030042;28;20137;-40
2023/01/17 02:44:43;;;;;;;21.00;11.30;;;;;;;1.99;100.00;92111.81;5029139;28;20037;-40
2023/01/17 02:47:35;;;;;;;17.65;11.88;;;;;;;1.70;100.00;92100.03;5030985;28;20029;-40
2023/01/17 02:50:21;;;;;;;21.23;11.07;;;;;;;1.84;100.00;92096.03;5028482;28;20033;-40
2023/01/17 02:53:02;;;;;;;17.90;8.27;;;;;;;2.00;100.00;92091.50;5029644;28;20034;-40
2023/01/17 02:55:34;;;;;;;16.92;9.95;;;;;;;2.02;100.00;92097.16;5030567;28;20107;-40
2023/01/17 02:58:02;;;;;;;16.10;8.90;;;;;;;2.00;100.00;92091.50;5029305;28;20124;-40
2023/01/17 03:01:00;;;;;;;18.50;11.25;;;;;;;2.01;100.00;92098.41;5030516;28;20509;-40
2023/01/17 03:03:40;;;;;;;12.65;7.00;;;;;;;2.18;100.00;92099.53;5024718;28;20116;-40
2023/01/17 03:06:34;;;;;;;19.23;11.02;;;;;;;2.17;100.00;92097.31;5030336;28;20021;-40
2023/01/17 03:09:01;;;;;;;18.15;10.68;;;;;;;2.18;100.00;92085.19;5023008;28;20030;-41
2023/01/17 03:11:26;;;;;;;17.45;10.93;;;;;;;2.06;100.00;92094.84;5029487;28;20041;-40
2023/01/17 03:13:56;;;;;;;16.48;10.32;;;;;;;2.22;100.00;92085.59;5030362;28;20544;-40
2023/01/17 03:16:23;;;;;;;19.95;10.80;;;;;;;2.21;100.00;92071.25;5030078;28;20029;-40
2023/01/17 03:18:48;;;;;;;21.58;11.48;;;;;;;2.16;100.00;92084.97;5028832;28;20409;-40
2023/01/17 03:21:14;;;;;;;16.42;9.73;;;;;;;2.28;100.00;92070.59;5030089;28;20032;-40
2023/01/17 03:23:39;;;;;;;15.23;9.30;;;;;;;2.39;100.00;92064.16;5030167;28;20029;-40
2023/01/17 03:26:05;;;;;;;19.20;11.77;;;;;;;2.28;100.00;92075.31;5029746;28;20029;-40
2023/01/17 03:28:30;;;;;;;14.75;9.75;;;;;;;2.29;100.00;92071.34;5030208;28;20025;-40
2023/01/17 03:30:56;;;;;;;21.27;11.38;;;;;;;2.33;100.00;92063.56;5030093;28;20484;-40
2023/01/17 03:33:23;;;;;;;18.52;10.68;;;;;;;2.16;100.00;92052.31;5029945;28;20029;-40
2023/01/17 03:35:48;;;;;;;15.68;9.50;;;;;;;2.17;100.00;92065.38;5029113;28;20127;-40
2023/01/17 03:38:15;;;;;;;17.08;10.57;;;;;;;2.08;100.00;92070.56;5029802;28;20525;-41
2023/01/17 03:40:42;;;;;;;15.50;9.65;;;;;;;2.15;100.00;92061.72;5029790;28;20128;-40
2023/01/17 03:43:07;;;;;;;14.07;9.13;;;;;;;2.40;100.00;92059.47;5029674;28;20034;-40
2023/01/17 03:45:33;;;;;;;15.18;10.43;;;;;;;2.47;99.91;92059.50;5028956;28;20044;-40
2023/01/17 03:47:59;;;;;;;16.85;10.02;;;;;;;2.58;98.39;92058.56;5029333;28;20032;-40
2023/01/17 03:50:25;;;;;;;15.63;9.75;;;;;;;2.51;98.51;92059.94;5029679;28;20021;-41
2023/01/17 03:52:50;;;;;;;15.93;8.85;;;;;;;2.44;98.79;92063.31;5029475;28;20025;-40
2023/01/17 03:55:16;;;;;;;17.02;9.77;;;;;;;2.49;98.93;92067.88;5029176;28;20033;-40
2023/01/17 03:57:42;;;;;;;17.55;10.18;;;;;;;2.50;98.82;92068.63;5029090;28;20119;-40
2023/01/17 04:00:08;;;;;;;12.75;7.85;;;;;;;2.51;99.24;92070.84;5028243;28;20033;-41
2023/01/17 04:02:33;;;;;;;10.32;6.75;;;;;;;2.66;98.56;92070.97;5029817;28;20532;-40
2023/01/17 04:04:59;;;;;;;17.67;9.70;;;;;;;2.64;98.04;92080.94;5029159;28;20032;-40
2023/01/17 04:07:24;;;;;;;15.40;10.00;;;;;;;2.49;98.80;92067.88;5029362;28;20059;-40
2023/01/17 04:09:50;;;;;;;16.83;10.23;;;;;;;2.61;98.93;92080.00;5029145;28;20545;-40
2023/01/17 04:12:15;;;;;;;18.95;9.55;;;;;;;2.58;99.12;92083.78;5029248;28;20033;-40
2023/01/17 04:14:41;;;;;;;17.00;9.70;;;;;;;2.66;98.98;92086.59;5029143;28;20029;-40
2023/01/17 04:17:10;;;;;;;15.57;10.05;;;;;;;2.68;99.06;92092.97;5028854;28;20025;-40
2023/01/17 04:19:35;;;;;;;14.02;8.80;;;;;;;2.78;98.81;92099.44;5027560;28;20112;-40
2023/01/17 04:22:01;;;;;;;16.27;9.77;;;;;;;2.76;97.91;92096.50;5029136;28;20784;-40
2023/01/17 04:24:27;;;;;;;14.38;8.95;;;;;;;2.83;98.33;92100.56;5028771;28;20037;-39
2023/01/17 04:26:52;;;;;;;15.73;9.45;;;;;;;2.76;98.29;92101.94;5028714;28;20531;-40
2023/01/17 04:29:17;;;;;;;15.32;9.63;;;;;;;2.77;98.96;92097.25;5032154;28;20652;-41
2023/01/17 04:31:43;;;;;;;14.40;9.52;;;;;;;2.74;98.60;92098.28;5033968;28;20037;-41
2023/01/17 04:34:08;;;;;;;13.20;9.10;;;;;;;2.78;99.56;92101.41;5028570;28;20029;-40
2023/01/17 04:36:34;;;;;;;14.27;8.82;;;;;;;2.88;98.63;92105.16;5046212;28;20155;-41
2023/01/17 04:38:59;;;;;;;12.68;8.43;;;;;;;2.92;98.70;92108.28;5037449;28;20052;-40
2023/01/17 04:41:25;;;;;;;12.68;8.65;;;;;;;2.81;98.59;92119.44;5028626;28;20030;-41
2023/01/17 04:43:50;;;;;;;11.63;7.80;;;;;;;3.03;97.48;92119.63;5028447;28;20025;-41
2023/01/17 04:46:15;;;;;;;13.52;8.05;;;;;;;3.05;97.29;92124.56;5026613;28;20022;-40
2023/01/17 04:48:41;;;;;;;14.43;8.38;;;;;;;3.02;96.97;92150.16;5028317;28;20029;-40
2023/01/17 04:51:06;;;;;;;16.33;6.93;;;;;;;3.15;96.98;92135.72;5028563;28;20021;-40
2023/01/17 04:53:32;;;;;;;11.77;9.00;;;;;;;3.01;97.13;92143.97;5028047;28;20034;-41
2023/01/17 04:55:57;;;;;;;17.17;9.57;;;;;;;2.90;97.76;92138.06;5028270;28;20750;-40
2023/01/17 04:58:23;;;;;;;14.50;9.07;;;;;;;2.95;98.45;92153.53;5028248;28;20564;-40
2023/01/17 05:00:49;;;;;;;15.57;9.60;;;;;;;3.00;97.71;92141.78;5028211;28;20053;-40
2023/01/17 05:03:18;;;;;;;15.85;9.13;;;;;;;3.06;96.66;92134.19;5028337;28;20031;-40
2023/01/17 05:05:44;;;;;;;16.38;8.90;;;;;;;2.93;97.83;92148.63;5028007;28;20037;-41
2023/01/17 05:08:09;;;;;;;15.70;8.40;;;;;;;2.98;97.33;92147.03;5028285;28;20029;-40
2023/01/17 05:10:35;;;;;;;13.70;9.13;;;;;;;2.88;98.03;92135.13;5028526;28;20488;-40
2023/01/17 05:13:01;;;;;;;11.52;7.93;;;;;;;2.94;98.04;92138.47;5028453;28;20021;-40
2023/01/17 05:15:27;;;;;;;12.80;8.55;;;;;;;2.85;98.46;92147.81;5027873;28;20057;-41
2023/01/17 05:17:53;;;;;;;13.00;8.60;;;;;;;2.92;98.90;92158.06;5026500;28;20110;-40
2023/01/17 05:20:20;;;;;;;13.43;8.35;;;;;;;2.90;98.36;92157.84;5027065;28;20036;-40
2023/01/17 05:22:54;;;;;;;16.30;8.95;;;;;;;2.92;98.38;92157.34;5028140;28;20029;-41
2023/01/17 05:25:21;;;;;;;17.98;10.50;;;;;;;2.81;98.50;92141.97;5027937;28;20052;-41
2023/01/17 05:27:46;;;;;;;14.50;8.80;;;;;;;2.74;99.00;92142.63;5027569;28;20032;-41
2023/01/17 05:30:12;;;;;;;13.35;7.07;;;;;;;2.77;98.70;92138.81;5038674;28;20028;-41
2023/01/17 05:32:37;;;;;;;19.20;11.75;;;;;;;2.77;98.77;92130.66;5047536;28;20055;-40
2023/01/17 05:35:03;;;;;;;18.83;10.15;;;;;;;2.73;98.52;92129.53;5041540;28;20045;-40
2023/01/17 05:37:29;;;;;;;15.90;10.43;;;;;;;2.66;98.81;92120.03;5027280;28;20103;-40
2023/01/17 05:39:54;;;;;;;17.40;10.18;;;;;;;2.59;99.18;92136.28;5027309;28;20025;-41
2023/01/17 05:42:19;;;;;;;13.85;9.20;;;;;;;2.57;100.00;92145.00;5027450;28;20047;-40
2023/01/17 05:44:45;;;;;;;20.52;13.05;;;;;;;2.50;100.00;92153.06;5026950;28;20025;-40
2023/01/17 05:47:10;;;;;;;17.52;11.10;;;;;;;2.50;100.00;92137.47;5027180;28;20041;-40
2023/01/17 05:49:37;;;;;;;15.15;9.93;;;;;;;2.39;100.00;92131.50;5027393;28;20037;-40
2023/01/17 05:52:03;;;;;;;15.18;9.48;;;;;;;2.38;100.00;92119.19;5026885;28;20033;-40
2023/01/17 05:54:28;;;;;;;15.95;10.07;;;;;;;2.35;100.00;92131.84;5027094;28;20040;-40
2023/01/17 05:56:54;;;;;;;15.18;11.25;;;;;;;2.29;100.00;92128.53;5027379;28;20057;-41
2023/01/17 05:59:19;;;;;;;17.63;10.23;;;;;;;2.29;100.00;92123.81;5027233;28;20037;-40
2023/01/17 06:01:45;;;;;;;16.73;10.45;;;;;;;2.19;100.00;92132.91;5026962;28;20025;-40
2023/01/17 06:04:10;;;;;;;21.42;12.38;;;;;;;2.14;100.00;92141.97;5027044;28;20045;-40
2023/01/17 06:06:36;;;;;;;24.77;14.02;;;;;;;2.10;100.00;92144.97;5026444;28;20033;-40
2023/01/17 06:09:02;;;;;;;21.73;11.77;;;;;;;2.06;100.00;92141.84;5027020;28;20033;-40
2023/01/17 06:11:27;;;;;;;15.48;9.88;;;;;;;2.03;100.00;92131.28;5026992;28;20704;-40
2023/01/17 06:13:53;;;;;;;19.52;13.55;;;;;;;2.08;100.00;92138.63;5020850;28;20052;-40
2023/01/17 06:16:18;;;;;;;23.08;14.02;;;;;;;2.19;100.00;92111.88;5024853;28;20545;-40
2023/01/17 06:18:43;;;;;;;17.55;11.40;;;;;;;2.27;100.00;92112.69;5017873;28;20041;-40
2023/01/17 06:21:09;;;;;;;16.20;9.48;;;;;;;2.41;100.00;92105.22;5019034;28;20033;-40
2023/01/17 06:23:34;;;;;;;22.08;9.23;;;;;;;2.66;100.00;92111.13;5025920;28;20401;-40
2023/01/17 06:26:03;;;;;;;16.55;10.75;;;;;;;2.67;100.00;92109.84;5024728;28;20029;-40
2023/01/17 06:28:29;;;;;;;18.52;11.85;;;;;;;2.80;100.00;92115.25;5025423;28;20095;-40
2023/01/17 06:30:54;;;;;;;14.80;8.18;;;;;;;3.01;98.99;92118.72;5024686;28;20052;-40
2023/01/17 06:33:20;;;;;;;16.65;9.27;;;;;;;2.97;98.80;92112.84;5017453;28;20068;-41
2023/01/17 06:35:49;;;;;;;14.07;9.35;;;;;;;3.07;98.17;92122.03;5029374;28;20899;-40
2023/01/17 06:38:14;;;;;;;;;;;;;;;3.11;98.14;92129.88;5025544;28;20036;-40
2023/01/17 06:40:39;;;;;;;17.20;9.75;;;;;;;3.11;98.35;92135.31;5025198;28;19917;-41
2023/01/17 06:43:05;;;;;;;14.45;9.88;;;;;;;3.16;97.51;92137.19;5017704;28;20037;-40
2023/01/17 06:45:33;;;;;;;19.05;12.32;;;;;;;3.22;96.76;92149.44;5019302;28;20112;-41
2023/01/17 06:48:00;;;;;;;19.73;12.65;;;;;;;3.16;96.97;92153.56;5024816;28;20481;-40
2023/01/17 06:50:26;;;;;;;16.67;9.98;;;;;;;3.23;97.26;92172.69;5024988;28;20681;-40
2023/01/17 06:53:02;;;;;;;20.63;11.60;;;;;;;3.27;97.21;92158.75;5024729;28;20032;-40
2023/01/17 06:55:29;;;;;;;13.15;9.73;;;;;;;3.35;96.67;92154.09;5025555;28;20033;-41
2023/01/17 06:58:01;;;;;;;11.23;8.07;;;;;;;3.53;95.54;92172.94;5025027;28;20112;-40
2023/01/17 07:00:27;;;;;;;10.70;6.88;;;;;;;3.75;94.59;92175.13;5025014;28;20083;-40
2023/01/17 07:02:52;;;;;;;12.38;8.57;;;;;;;3.75;94.31;92179.84;5015134;28;20026;-40
2023/01/17 07:05:18;;;;;;;18.58;9.27;;;;;;;3.81;94.05;92194.09;5021619;28;20029;-40
2023/01/17 07:07:44;;;;;;;18.23;10.85;;;;;;;3.92;93.23;92199.25;5024694;28;20761;-41
2023/01/17 07:10:11;;;;;;;17.27;9.80;;;;;;;3.95;92.88;92209.13;5024599;28;20575;-40
2023/01/17 07:12:36;;;;;;;10.63;7.40;;;;;;;4.12;91.71;92220.31;5023237;28;20036;-40
2023/01/17 07:15:02;;;;;;;15.75;8.82;;;;;;;4.13;91.93;92221.81;5024490;28;20033;-41
2023/01/17 07:17:28;;;;;;;13.45;9.02;;;;;;;4.38;90.62;92211.91;5026851;28;20032;-41
2023/01/17 07:19:53;;;;;;;10.38;6.97;;;;;;;4.06;91.11;92219.75;5028711;28;20040;-41
2023/01/17 07:22:18;;;;;;;13.30;7.28;;;;;;;4.08;91.09;92227.41;5028352;28;20036;-41
2023/01/17 07:24:44;;;;;;;15.07;8.00;;;;;;;4.10;90.78;92233.78;5027841;28;20044;-40
2023/01/17 07:27:09;;;;;;;7.82;5.75;;;;;;;4.29;90.89;92231.53;5027803;28;20037;-41
2023/01/17 07:29:35;;;;;;;11.43;6.38;;;;;;;4.53;89.12;92244.78;5032672;28;20053;-40
2023/01/17 07:32:02;;;;;;;20.42;13.13;;;;;;;4.33;89.51;92256.50;5029216;28;20420;-40
2023/01/17 07:34:27;;;;;;;28.50;15.70;;;;;;;4.33;89.94;92234.66;5028379;28;20036;-41
2023/01/17 07:36:53;;;;;;;15.52;8.88;;;;;;;4.34;89.38;92230.66;5029237;28;20054;-41
2023/01/17 07:39:19;;;;;;;14.50;7.70;;;;;;;4.37;90.67;92234.31;5027769;28;20029;-40
2023/01/17 07:41:45;;;;;;;14.15;8.55;;;;;;;5.01;87.86;92220.56;5028463;28;20583;-41
2023/01/17 07:44:12;;;;;;;9.75;6.75;;;;;;;5.18;85.63;92193.44;5016412;28;20038;-41
2023/01/17 07:46:37;;;;;;;9.30;6.10;;;;;;;5.85;83.66;92183.84;5026031;28;20043;-40
2023/01/17 07:49:03;;;;;;;7.97;6.38;;;;;;;6.57;81.24;92195.78;5027980;28;20055;-41
2023/01/17 07:51:29;;;;;;;7.95;6.72;;;;;;;7.20;76.58;92195.69;5027470;28;20057;-41
2023/01/17 07:53:54;;;;;;;8.13;5.38;;;;;;;7.95;72.11;92186.25;5027184;28;20143;-41
2023/01/17 07:56:20;;;;;;;5.55;4.15;;;;;;;7.79;72.74;92188.38;5027336;28;20036;-41
2023/01/17 07:58:46;;;;;;;7.07;3.55;;;;;;;7.87;73.01;92185.56;5027505;28;20041;-41
2023/01/17 08:01:12;;;;;;;5.65;4.07;;;;;;;7.94;71.77;92191.00;5014163;28;20041;-41
2023/01/17 08:03:41;;;;;;;6.75;5.15;;;;;;;8.60;69.88;92192.25;5027574;28;20033;-41
2023/01/17 08:06:18;;;;;;;12.15;8.27;;;;;;;8.81;68.26;92185.06;5014026;28;20041;-41
2023/01/17 08:08:44;;;;;;;13.00;9.15;;;;;;;8.81;68.30;92200.81;5025875;28;20045;-41
2023/01/17 08:11:10;;;;;;;14.43;9.38;;;;;;;8.79;68.37;92204.13;5027563;28;20040;-39
2023/01/17 08:13:35;;;;;;;6.75;4.68;;;;;;;8.44;68.82;92201.94;5027276;28;20520;-41
2023/01/17 08:16:02;;;;;;;6.40;3.67;;;;;;;7.85;70.87;92182.63;5028694;28;20021;-41
2023/01/17 08:18:28;;;;;;;6.85;4.25;;;;;;;8.19;70.50;92182.72;5028945;28;20474;-41
2023/01/17 08:20:53;;;;;;;7.00;3.92;;;;;;;8.57;68.85;92185.13;5028695;28;20587;-41
2023/01/17 08:23:19;;;;;;;4.93;3.65;;;;;;;8.66;68.46;92184.47;5028862;28;20029;-41
2023/01/17 08:25:45;;;;;;;7.97;5.22;;;;;;;9.24;67.38;92186.34;5028920;28;20025;-41
2023/01/17 08:28:10;;;;;;;13.00;8.77;;;;;;;9.71;65.66;92198.94;5027954;28;20091;-41
2023/01/17 08:30:36;;;;;;;8.45;6.38;;;;;;;10.20;64.72;92189.56;5028577;28;20087;-41
2023/01/17 08:33:01;;;;;;;12.45;8.73;;;;;;;9.74;65.64;92179.22;5029087;28;20036;-41
2023/01/17 08:35:27;;;;;;;9.00;7.18;;;;;;;9.52;65.38;92171.28;5037093;28;20554;-41
2023/01/17 08:37:54;;;;;;;10.38;6.20;;;;;;;9.80;65.37;92176.94;5046767;28;20032;-41
2023/01/17 08:40:20;;;;;;;9.70;5.88;;;;;;;10.34;63.38;92177.56;5028707;28;20034;-41
2023/01/17 08:42:56;;;;;;;10.23;5.85;;;;;;;10.34;63.35;92191.34;5028731;28;20034;-41
2023/01/17 08:45:21;;;;;;;8.50;6.55;;;;;;;11.02;61.01;92198.38;5028584;28;20065;-41
2023/01/17 08:47:47;;;;;;;7.72;5.63;;;;;;;11.35;58.96;92209.69;5028066;28;20036;-41
2023/01/17 08:50:12;;;;;;;8.52;5.78;;;;;;;11.51;59.14;92199.78;5028207;28;20087;-41
2023/01/17 08:52:38;;;;;;;6.53;4.82;;;;;;;12.73;58.21;92201.91;5028177;28;20037;-41
2023/01/17 08:55:04;;;;;;;17.70;11.27;;;;;;;13.97;54.09;92205.69;5028258;28;20033;-39
2023/01/17 08:57:31;;;;;;;10.32;5.20;;;;;;;15.26;48.99;92195.94;5028164;28;20558;-41
2023/01/17 08:59:56;;;;;;;4.03;3.45;;;;;;;13.94;50.03;92212.44;5027971;28;20072;-39
2023/01/17 09:02:25;;;;;;;6.28;3.15;;;;;;;12.49;52.48;92194.78;5028057;28;20029;-41
2023/01/17 09:04:51;;;;;;;6.85;3.50;;;;;;;11.18;57.23;92198.81;5027903;28;20040;-41
2023/01/17 09:07:18;;;;;;;3.85;2.88;;;;;;;10.63;58.88;92194.88;5028349;28;20025;-40
2023/01/17 09:09:44;;;;;;;4.57;3.00;;;;;;;9.89;61.07;92195.53;5028865;28;20038;-41
2023/01/17 09:12:09;;;;;;;3.13;2.50;;;;;;;9.89;60.92;92192.06;5026749;28;20040;-40
2023/01/17 09:14:36;;;;;;;4.32;3.03;;;;;;;10.00;61.10;92191.50;5028391;28;20037;-40
2023/01/17 09:17:02;;;;;;;2.78;2.42;;;;;;;10.01;60.72;92200.50;5027905;28;20040;-40
2023/01/17 09:19:27;;;;;;;3.85;2.25;;;;;;;9.88;60.23;92201.59;5027996;28;20033;-41
2023/01/17 09:21:53;;;;;;;2.38;2.10;;;;;;;10.01;60.46;92186.69;5028188;28;20084;-40
2023/01/17 09:24:19;;;;;;;2.80;1.95;;;;;;;9.91;60.13;92192.19;5029637;28;20171;-41
2023/01/17 09:26:44;;;;;;;2.15;1.90;;;;;;;9.78;61.47;92193.31;5029747;28;20112;-40
2023/01/17 09:29:10;;;;;;;2.47;2.03;;;;;;;9.59;61.62;92187.00;5029668;28;20029;-40
2023/01/17 09:31:36;;;;;;;3.00;2.47;;;;;;;9.77;62.20;92177.34;5029386;28;20025;-40
2023/01/17 09:34:01;;;;;;;4.22;2.72;;;;;;;10.15;61.40;92191.31;5029805;28;20029;-40
2023/01/17 09:36:30;;;;;;;3.90;3.13;;;;;;;9.83;62.68;92197.81;5046068;28;20057;-40
2023/01/17 09:39:00;;;;;;;4.13;2.83;;;;;;;9.66;62.86;92199.91;5038462;28;20501;-41
2023/01/17 09:41:29;;;;;;;6.90;4.40;;;;;;;9.57;63.88;92186.84;5029239;28;20493;-40
2023/01/17 09:43:59;;;;;;;5.18;3.72;;;;;;;9.62;64.41;92208.59;5028079;28;20029;-41
2023/01/17 09:46:31;;;;;;;6.22;4.10;;;;;;;9.29;64.77;92201.88;5027725;28;20475;-40
2023/01/17 09:49:02;;;;;;;3.58;2.60;;;;;;;9.57;63.41;92195.09;5028306;28;20045;-41
2023/01/17 09:51:28;;;;;;;9.85;5.72;;;;;;;9.77;62.36;92196.63;5028236;28;20068;-40
2023/01/17 09:53:54;;;;;;;5.75;2.75;;;;;;;9.85;62.21;92189.00;5027772;28;20061;-41
2023/01/17 09:56:30;;;;;;;2.95;2.03;;;;;;;9.86;61.18;92176.66;5029481;28;20390;-41
2023/01/17 09:59:18;;;;;;;5.22;2.75;;;;;;;9.65;62.08;92166.13;5029135;28;20490;-40
2023/01/17 10:02:07;;;;;;;3.35;2.80;;;;;;;9.81;61.77;92164.59;5027650;28;20686;-41
2023/01/17 10:04:51;;;;;;;2.75;2.10;;;;;;;10.21;60.16;92164.16;5029494;28;20029;-41
2023/01/17 10:07:24;;;;;;;3.60;2.45;;;;;;;9.83;61.25;92161.97;5028751;28;20029;-40
2023/01/17 10:10:08;;;;;;;3.80;2.60;;;;;;;9.94;61.21;92138.66;5029095;28;20142;-41
2023/01/17 10:13:02;;;;;;;4.93;2.50;;;;;;;9.82;61.87;92132.25;5029010;28;20084;-40
2023/01/17 10:15:41;;;;;;;3.05;2.13;;;;;;;9.74;62.02;92131.63;5026794;28;20049;-40
2023/01/17 10:18:37;;;;;;;4.93;3.05;;;;;;;9.56;63.32;92116.47;5028933;28;20026;-41
2023/01/17 10:21:34;;;;;;;5.18;3.35;;;;;;;9.50;62.79;92133.28;5028617;28;20681;-40
2023/01/17 10:24:30;;;;;;;5.68;3.13;;;;;;;9.56;62.79;92158.53;4974655;28;20039;-40
2023/01/17 10:26:56;;;;;;;7.07;3.28;;;;;;;9.85;62.41;92177.97;5028669;28;20505;-40
2023/01/17 10:29:23;;;;;;;6.53;4.30;;;;;;;10.06;62.27;92169.16;5027367;28;20048;-40
2023/01/17 10:31:53;;;;;;;7.75;4.95;;;;;;;9.43;63.95;92163.69;5027705;28;20408;-41
2023/01/17 10:34:40;;;;;;;15.10;11.30;;;;;;;9.27;64.78;92162.47;5027714;28;20476;-41
2023/01/17 10:37:14;;;;;;;7.65;4.88;;;;;;;9.41;64.73;92161.53;5007629;28;20133;-40
2023/01/17 10:39:41;;;;;;;6.57;4.68;;;;;;;9.27;64.55;92143.88;5025213;28;20489;-41
2023/01/17 10:42:15;;;;;;;6.85;4.78;;;;;;;9.12;65.54;92147.56;5027174;28;20021;-40
2023/01/17 10:44:58;;;;;;;9.70;5.82;;;;;;;9.05;66.13;92139.44;5028441;28;20486;-40
2023/01/17 10:47:24;;;;;;;9.77;4.88;;;;;;;9.21;64.98;92142.69;5027532;28;20498;-41
2023/01/17 10:49:56;;;;;;;6.93;5.15;;;;;;;9.27;65.54;92156.94;5028660;28;20029;-41
2023/01/17 10:52:24;;;;;;;9.57;4.95;;;;;;;9.60;65.64;92147.09;5031154;28;20467;-40
2023/01/17 10:55:04;;;;;;;8.82;4.95;;;;;;;9.92;64.75;92157.81;5032713;28;20090;-40
2023/01/17 10:57:42;;;;;;;4.28;3.42;;;;;;;10.10;62.28;92150.91;5032397;28;20665;-41
2023/01/17 11:00:52;;;;;;;6.35;4.63;;;;;;;10.19;63.34;92152.97;5032145;28;20030;-41
2023/01/17 11:03:22;;;;;;;8.60;4.90;;;;;;;10.39;62.18;92154.47;4990152;28;20030;-41
2023/01/17 11:06:26;;;;;;;11.75;5.07;;;;;;;10.29;61.39;92139.94;5024748;28;20048;-40
2023/01/17 11:08:53;;;;;;;4.57;3.38;;;;;;;10.25;60.86;92153.44;4973824;28;20034;-40
2023/01/17 11:11:24;;;;;;;3.92;3.22;;;;;;;10.04;62.39;92149.72;4990308;28;20092;-41
2023/01/17 11:13:51;;;;;;;4.57;3.63;;;;;;;9.94;62.89;92149.69;5010967;28;20037;-41
2023/01/17 11:16:22;;;;;;;6.25;3.78;;;;;;;10.18;61.89;92132.22;5030631;28;20476;-41
2023/01/17 11:19:05;;;;;;;3.03;2.50;;;;;;;9.93;63.03;92131.69;5030893;28;20021;-41
2023/01/17 11:21:31;;;;;;;7.03;3.78;;;;;;;9.76;64.55;92129.78;5012121;28;20030;-40
2023/01/17 11:23:56;;;;;;;4.93;2.85;;;;;;;9.84;63.60;92124.84;5011908;28;20032;-40
2023/01/17 11:26:30;;;;;;;3.88;3.15;;;;;;;9.79;64.05;92114.09;5012340;28;20038;-40
2023/01/17 11:29:27;;;;;;;6.40;4.00;;;;;;;9.92;61.42;92092.38;5011881;28;20036;-41
2023/01/17 11:31:55;;;;;;;6.25;3.83;;;;;;;10.37;60.14;92112.91;5012293;28;20030;-41
2023/01/17 11:34:30;;;;;;;4.60;3.00;;;;;;;10.67;59.62;92122.69;5011999;28;20034;-40
2023/01/17 11:37:08;;;;;;;8.18;4.65;;;;;;;10.79;59.93;92106.25;5011632;28;20057;-40
2023/01/17 11:39:33;;;;;;;6.07;3.63;;;;;;;10.86;57.87;92080.53;5027770;28;20033;-41
2023/01/17 11:41:59;;;;;;;6.40;3.88;;;;;;;10.93;58.09;92080.38;5031297;28;20512;-41
2023/01/17 11:44:25;;;;;;;3.58;2.33;;;;;;;10.88;58.86;92080.66;5031692;28;20032;-41
2023/01/17 11:47:13;;;;;;;4.53;2.70;;;;;;;10.94;59.38;92081.81;5030782;28;20034;-40
2023/01/17 11:49:40;;;;;;;6.57;4.15;;;;;;;11.04;59.17;92077.03;5031207;28;20021;-40
2023/01/17 11:52:30;;;;;;;7.40;4.68;;;;;;;11.27;59.35;92071.72;5031157;28;20112;-41
2023/01/17 11:54:56;;;;;;;4.00;3.53;;;;;;;11.40;58.50;92073.28;5031645;28;20084;-41
2023/01/17 11:57:31;;;;;;;9.25;6.00;;;;;;;11.31;58.82;92054.69;5031551;28;20493;-40
2023/01/17 12:00:23;;;;;;;5.15;3.33;;;;;;;11.37;58.48;92055.09;5029818;28;20068;-41
2023/01/17 12:02:57;;;;;;;8.18;4.50;;;;;;;11.08;59.77;92066.25;5029899;28;20513;-41
2023/01/17 12:05:45;;;;;;;9.48;6.53;;;;;;;10.73;62.01;92064.41;5029875;28;20037;-40
2023/01/17 12:08:19;;;;;;;5.82;4.00;;;;;;;10.87;61.56;92074.41;5031498;28;20425;-41
2023/01/17 12:10:57;;;;;;;6.10;4.60;;;;;;;10.82;62.26;92083.00;5031088;28;20382;-40
2023/01/17 12:14:00;;;;;;;8.63;4.30;;;;;;;10.33;62.96;92076.06;5029747;28;20048;-40
2023/01/17 12:16:38;;;;;;;5.35;3.70;;;;;;;10.20;64.26;92059.94;5031404;28;20033;-40
2023/01/17 12:19:24;;;;;;;6.43;4.78;;;;;;;10.09;64.54;92071.50;5030742;28;20033;-41
2023/01/17 12:21:52;;;;;;;12.50;7.43;;;;;;;9.89;65.49;92059.72;5030608;28;20033;-40
2023/01/17 12:24:44;;;;;;;9.38;5.43;;;;;;;9.57;66.55;92046.31;5030883;28;20060;-41
2023/01/17 12:27:18;;;;;;;13.60;7.13;;;;;;;9.81;65.39;92059.84;5030660;28;20033;-40
2023/01/17 12:29:57;;;;;;;4.30;3.08;;;;;;;10.14;63.68;92087.06;5029522;28;20567;-40
2023/01/17 12:32:52;;;;;;;24.35;10.32;;;;;;;10.09;64.71;92085.31;5030869;28;20034;-40
2023/01/17 12:35:22;;;;;;;19.60;9.68;;;;;;;9.99;65.35;92095.56;5027911;28;20053;-40
2023/01/17 12:37:50;;;;;;;6.35;3.50;;;;;;;10.19;64.70;92088.81;5029602;28;20049;-40
2023/01/17 12:40:32;;;;;;;4.85;3.25;;;;;;;10.13;64.60;92089.09;5030325;28;20025;-40
2023/01/17 12:43:07;;;;;;;7.22;4.18;;;;;;;10.00;65.17;92070.19;5030469;28;20033;-40
2023/01/17 12:45:42;;;;;;;6.50;3.80;;;;;;;9.79;66.59;92067.22;5029314;28;20034;-40
2023/01/17 12:48:15;;;;;;;4.28;3.30;;;;;;;9.69;66.90;92058.97;5030468;28;20413;-40
2023/01/17 12:50:52;;;;;;;5.13;3.45;;;;;;;9.73;67.33;92061.28;5030710;28;20083;-40
2023/01/17 12:53:39;;;;;;;8.68;3.78;;;;;;;9.65;67.50;92061.41;5030270;28;20033;-41
2023/01/17 12:56:10;;;;;;;8.13;4.20;;;;;;;9.54;67.71;92055.72;5030076;28;20029;-40
2023/01/17 12:58:43;;;;;;;6.82;3.97;;;;;;;9.68;66.86;92059.53;5028920;28;20505;-40
2023/01/17 13:01:21;;;;;;;20.88;10.48;;;;;;;9.69;67.25;92060.97;5029921;28;20420;-40
2023/01/17 13:03:59;;;;;;;4.07;3.33;;;;;;;9.62;67.69;92057.03;5030279;28;20595;-40